sensor_id;sensor_type;location;lat;lon;timestamp;temperature;humidity
16974;DHT22;8603;46.944;7.412;2022-11-23T00:01:43;3.60;99.90
16974;DHT22;8603;46.944;7.412;2022-11-23T00:04:11;3.60;99.90
16974;DHT22;8603;46.944;7.412;2022-11-23T00:06:37;3.50;99.90
16974;DHT22;8603;46.944;7.412;2022-11-23T00:09:03;3.50;99.90
16974;DHT22;8603;46.944;7.412;2022-11-23T00:11:29;3.40;99.90
16974;DHT22;8603;46.944;7.412;2022-11-23T00:13:55;3.40;99.90
16974;DHT22;8603;46.944;7.412;2022-11-23T00:16:23;3.30;99.90
16974;DHT22;8603;46.944;7.412;2022-11-23T00:18:52;3.30;99.90
16974;DHT22;8603;46.944;7.412;2022-11-23T00:21:18;3.20;99.90
16974;DHT22;8603;46.944;7.412;2022-11-23T00:23:45;3.20;99.90
16974;DHT22;8603;46.944;7.412;2022-11-23T00:26:11;3.20;99.90
16974;DHT22;8603;46.944;7.412;2022-11-23T00:28:37;3.10;99.90
16974;DHT22;8603;46.944;7.412;2022-11-23T00:31:13;3.00;99.90
16974;DHT22;8603;46.944;7.412;2022-11-23T00:33:38;3.00;99.90
16974;DHT22;8603;46.944;7.412;2022-11-23T00:36:06;2.90;99.90
16974;DHT22;8603;46.944;7.412;2022-11-23T00:38:32;2.90;99.90
16974;DHT22;8603;46.944;7.412;2022-11-23T00:40:59;2.90;99.90
16974;DHT22;8603;46.944;7.412;2022-11-23T00:43:25;2.90;99.90
16974;DHT22;8603;46.944;7.412;2022-11-23T00:48:32;2.90;99.90
16974;DHT22;8603;46.944;7.412;2022-11-23T00:51:06;2.90;99.90
16974;DHT22;8603;46.944;7.412;2022-11-23T00:53:33;2.80;99.90
16974;DHT22;8603;46.944;7.412;2022-11-23T00:55:59;2.70;99.90
16974;DHT22;8603;46.944;7.412;2022-11-23T00:58:25;2.50;99.90
16974;DHT22;8603;46.944;7.412;2022-11-23T01:01:00;2.30;99.90
16974;DHT22;8603;46.944;7.412;2022-11-23T01:03:26;2.20;99.90
16974;DHT22;8603;46.944;7.412;2022-11-23T01:05:52;2.00;99.90
16974;DHT22;8603;46.944;7.412;2022-11-23T01:08:18;1.90;99.90
16974;DHT22;8603;46.944;7.412;2022-11-23T01:10:43;1.80;99.90
16974;DHT22;8603;46.944;7.412;2022-11-23T01:13:09;1.70;99.90
16974;DHT22;8603;46.944;7.412;2022-11-23T01:15:34;1.70;99.90
16974;DHT22;8603;46.944;7.412;2022-11-23T01:18:00;1.60;99.90
16974;DHT22;8603;46.944;7.412;2022-11-23T01:20:25;1.60;99.90
16974;DHT22;8603;46.944;7.412;2022-11-23T01:22:51;1.60;99.90
16974;DHT22;8603;46.944;7.412;2022-11-23T01:25:18;1.60;99.90
16974;DHT22;8603;46.944;7.412;2022-11-23T01:27:43;1.50;99.90
16974;DHT22;8603;46.944;7.412;2022-11-23T01:30:09;1.50;99.90
16974;DHT22;8603;46.944;7.412;2022-11-23T01:32:35;1.60;99.90
16974;DHT22;8603;46.944;7.412;2022-11-23T01:35:00;1.60;99.90
16974;DHT22;8603;46.944;7.412;2022-11-23T01:37:26;1.60;99.90
16974;DHT22;8603;46.944;7.412;2022-11-23T01:39:51;1.60;99.90
16974;DHT22;8603;46.944;7.412;2022-11-23T01:42:17;1.60;99.90
16974;DHT22;8603;46.944;7.412;2022-11-23T01:44:43;1.50;99.90
16974;DHT22;8603;46.944;7.412;2022-11-23T01:47:09;1.40;99.90
16974;DHT22;8603;46.944;7.412;2022-11-23T01:49:46;1.40;99.90
16974;DHT22;8603;46.944;7.412;2022-11-23T01:52:16;1.30;99.90
16974;DHT22;8603;46.944;7.412;2022-11-23T01:54:52;1.30;99.90
16974;DHT22;8603;46.944;7.412;2022-11-23T01:57:21;1.30;99.90
16974;DHT22;8603;46.944;7.412;2022-11-23T01:59:48;1.30;99.90
16974;DHT22;8603;46.944;7.412;2022-11-23T02:02:15;1.30;99.90
16974;DHT22;8603;46.944;7.412;2022-11-23T02:04:43;1.20;99.90
16974;DHT22;8603;46.944;7.412;2022-11-23T02:07:11;1.10;99.90
16974;DHT22;8603;46.944;7.412;2022-11-23T02:09:38;1.00;99.90
16974;DHT22;8603;46.944;7.412;2022-11-23T02:12:10;0.90;99.90
16974;DHT22;8603;46.944;7.412;2022-11-23T02:14:36;0.80;99.90
16974;DHT22;8603;46.944;7.412;2022-11-23T02:17:02;0.80;99.90
16974;DHT22;8603;46.944;7.412;2022-11-23T02:25:10;0.80;99.90
16974;DHT22;8603;46.944;7.412;2022-11-23T02:27:38;0.80;99.90
16974;DHT22;8603;46.944;7.412;2022-11-23T02:30:05;0.70;99.90
16974;DHT22;8603;46.944;7.412;2022-11-23T02:32:32;0.70;99.90
16974;DHT22;8603;46.944;7.412;2022-11-23T02:34:58;0.70;99.90
16974;DHT22;8603;46.944;7.412;2022-11-23T02:37:24;0.70;99.90
16974;DHT22;8603;46.944;7.412;2022-11-23T02:39:51;0.60;99.90
16974;DHT22;8603;46.944;7.412;2022-11-23T02:42:18;0.50;99.90
16974;DHT22;8603;46.944;7.412;2022-11-23T02:47:31;0.40;99.90
16974;DHT22;8603;46.944;7.412;2022-11-23T02:49:56;0.40;99.90
16974;DHT22;8603;46.944;7.412;2022-11-23T02:52:22;0.30;99.90
16974;DHT22;8603;46.944;7.412;2022-11-23T02:54:48;0.30;99.90
16974;DHT22;8603;46.944;7.412;2022-11-23T02:57:14;0.30;99.90
16974;DHT22;8603;46.944;7.412;2022-11-23T02:59:40;0.20;99.90
16974;DHT22;8603;46.944;7.412;2022-11-23T03:02:06;0.20;99.90
16974;DHT22;8603;46.944;7.412;2022-11-23T03:04:32;0.10;99.90
16974;DHT22;8603;46.944;7.412;2022-11-23T03:06:58;0.10;99.90
16974;DHT22;8603;46.944;7.412;2022-11-23T03:09:23;0.00;99.90
16974;DHT22;8603;46.944;7.412;2022-11-23T03:11:51;-0.10;99.90
16974;DHT22;8603;46.944;7.412;2022-11-23T03:14:16;-0.10;99.90
16974;DHT22;8603;46.944;7.412;2022-11-23T03:16:42;-0.20;99.90
16974;DHT22;8603;46.944;7.412;2022-11-23T03:19:07;-0.20;99.90
16974;DHT22;8603;46.944;7.412;2022-11-23T03:21:33;-0.20;99.90
16974;DHT22;8603;46.944;7.412;2022-11-23T03:23:59;-0.20;99.90
16974;DHT22;8603;46.944;7.412;2022-11-23T03:26:24;-0.20;99.90
16974;DHT22;8603;46.944;7.412;2022-11-23T03:28:50;-0.20;99.90
16974;DHT22;8603;46.944;7.412;2022-11-23T03:31:15;-0.20;99.90
16974;DHT22;8603;46.944;7.412;2022-11-23T03:33:41;-0.20;99.90
16974;DHT22;8603;46.944;7.412;2022-11-23T03:36:07;-0.20;99.90
16974;DHT22;8603;46.944;7.412;2022-11-23T03:38:33;-0.20;99.90
16974;DHT22;8603;46.944;7.412;2022-11-23T03:40:58;-0.20;99.90
16974;DHT22;8603;46.944;7.412;2022-11-23T03:43:24;-0.20;99.90
16974;DHT22;8603;46.944;7.412;2022-11-23T03:45:50;-0.20;99.90
16974;DHT22;8603;46.944;7.412;2022-11-23T03:48:17;-0.20;99.90
16974;DHT22;8603;46.944;7.412;2022-11-23T03:50:45;-0.20;99.90
16974;DHT22;8603;46.944;7.412;2022-11-23T03:53:11;-0.10;99.90
16974;DHT22;8603;46.944;7.412;2022-11-23T03:55:37;-0.10;99.90
16974;DHT22;8603;46.944;7.412;2022-11-23T03:58:03;-0.20;99.90
16974;DHT22;8603;46.944;7.412;2022-11-23T04:00:29;-0.30;99.90
16974;DHT22;8603;46.944;7.412;2022-11-23T04:02:55;-0.40;99.90
16974;DHT22;8603;46.944;7.412;2022-11-23T04:05:21;-0.40;99.90
16974;DHT22;8603;46.944;7.412;2022-11-23T04:07:47;-0.40;99.90
16974;DHT22;8603;46.944;7.412;2022-11-23T04:10:17;-0.40;99.90
16974;DHT22;8603;46.944;7.412;2022-11-23T04:12:43;-0.40;99.90
16974;DHT22;8603;46.944;7.412;2022-11-23T04:15:09;-0.40;99.90
16974;DHT22;8603;46.944;7.412;2022-11-23T04:17:35;-0.50;99.90
16974;DHT22;8603;46.944;7.412;2022-11-23T04:20:00;-0.50;99.90
16974;DHT22;8603;46.944;7.412;2022-11-23T04:22:26;-0.40;99.90
16974;DHT22;8603;46.944;7.412;2022-11-23T04:24:52;-0.50;99.90
16974;DHT22;8603;46.944;7.412;2022-11-23T04:27:17;-0.60;99.90
16974;DHT22;8603;46.944;7.412;2022-11-23T04:29:43;-0.70;99.90
16974;DHT22;8603;46.944;7.412;2022-11-23T04:32:08;-0.70;99.90
16974;DHT22;8603;46.944;7.412;2022-11-23T04:34:34;-0.60;99.90
16974;DHT22;8603;46.944;7.412;2022-11-23T04:37:01;-0.60;99.90
16974;DHT22;8603;46.944;7.412;2022-11-23T04:39:27;-0.60;99.90
16974;DHT22;8603;46.944;7.412;2022-11-23T04:41:52;-0.50;99.90
16974;DHT22;8603;46.944;7.412;2022-11-23T04:44:18;-0.40;99.90
16974;DHT22;8603;46.944;7.412;2022-11-23T04:46:45;-0.40;99.90
16974;DHT22;8603;46.944;7.412;2022-11-23T04:49:11;-0.50;99.90
16974;DHT22;8603;46.944;7.412;2022-11-23T04:51:37;-0.60;99.90
16974;DHT22;8603;46.944;7.412;2022-11-23T04:54:02;-0.50;99.90
16974;DHT22;8603;46.944;7.412;2022-11-23T04:56:28;-0.70;99.90
16974;DHT22;8603;46.944;7.412;2022-11-23T04:58:54;-0.70;99.90
16974;DHT22;8603;46.944;7.412;2022-11-23T05:01:19;-0.60;99.90
16974;DHT22;8603;46.944;7.412;2022-11-23T05:03:45;-0.60;99.90
16974;DHT22;8603;46.944;7.412;2022-11-23T05:06:10;-0.70;99.90
16974;DHT22;8603;46.944;7.412;2022-11-23T05:08:36;-0.80;99.90
16974;DHT22;8603;46.944;7.412;2022-11-23T05:11:02;-0.90;99.90
16974;DHT22;8603;46.944;7.412;2022-11-23T05:13:27;-1.00;99.90
16974;DHT22;8603;46.944;7.412;2022-11-23T05:15:53;-1.00;99.90
16974;DHT22;8603;46.944;7.412;2022-11-23T05:18:19;-1.10;99.90
16974;DHT22;8603;46.944;7.412;2022-11-23T05:20:44;-1.00;99.90
16974;DHT22;8603;46.944;7.412;2022-11-23T05:23:10;-1.00;99.90
16974;DHT22;8603;46.944;7.412;2022-11-23T05:25:36;-1.00;99.90
16974;DHT22;8603;46.944;7.412;2022-11-23T05:28:01;-1.00;99.90
16974;DHT22;8603;46.944;7.412;2022-11-23T05:30:27;-1.00;99.90
16974;DHT22;8603;46.944;7.412;2022-11-23T05:32:52;-0.90;99.90
16974;DHT22;8603;46.944;7.412;2022-11-23T05:35:18;-0.90;99.90
16974;DHT22;8603;46.944;7.412;2022-11-23T05:37:44;-0.90;99.90
16974;DHT22;8603;46.944;7.412;2022-11-23T05:40:10;-0.90;99.90
16974;DHT22;8603;46.944;7.412;2022-11-23T05:42:36;-0.90;99.90
16974;DHT22;8603;46.944;7.412;2022-11-23T05:45:02;-0.90;99.90
16974;DHT22;8603;46.944;7.412;2022-11-23T05:47:28;-0.90;99.90
16974;DHT22;8603;46.944;7.412;2022-11-23T05:49:53;-0.90;99.90
16974;DHT22;8603;46.944;7.412;2022-11-23T05:52:19;-0.90;99.90
16974;DHT22;8603;46.944;7.412;2022-11-23T05:54:47;-0.90;99.90
16974;DHT22;8603;46.944;7.412;2022-11-23T05:57:16;-0.90;99.90
16974;DHT22;8603;46.944;7.412;2022-11-23T05:59:42;-0.90;99.90
16974;DHT22;8603;46.944;7.412;2022-11-23T06:02:08;-0.90;99.90
16974;DHT22;8603;46.944;7.412;2022-11-23T06:04:33;-1.10;99.90
16974;DHT22;8603;46.944;7.412;2022-11-23T06:06:59;-1.10;99.90
16974;DHT22;8603;46.944;7.412;2022-11-23T06:09:26;-1.10;99.90
16974;DHT22;8603;46.944;7.412;2022-11-23T06:11:52;-1.10;99.90
16974;DHT22;8603;46.944;7.412;2022-11-23T06:14:17;-1.10;99.90
16974;DHT22;8603;46.944;7.412;2022-11-23T06:16:43;-1.20;99.90
16974;DHT22;8603;46.944;7.412;2022-11-23T06:19:09;-1.20;99.90
16974;DHT22;8603;46.944;7.412;2022-11-23T06:21:34;-0.80;99.90
16974;DHT22;8603;46.944;7.412;2022-11-23T06:24:00;-0.70;99.90
16974;DHT22;8603;46.944;7.412;2022-11-23T06:26:25;-0.80;99.90
16974;DHT22;8603;46.944;7.412;2022-11-23T06:28:51;-0.90;99.90
16974;DHT22;8603;46.944;7.412;2022-11-23T06:31:17;-1.00;99.90
16974;DHT22;8603;46.944;7.412;2022-11-23T06:33:42;-0.90;99.90
16974;DHT22;8603;46.944;7.412;2022-11-23T06:36:09;-1.00;99.90
16974;DHT22;8603;46.944;7.412;2022-11-23T06:38:35;-1.00;99.90
16974;DHT22;8603;46.944;7.412;2022-11-23T06:41:01;-1.00;99.90
16974;DHT22;8603;46.944;7.412;2022-11-23T06:43:27;-1.00;99.90
16974;DHT22;8603;46.944;7.412;2022-11-23T06:45:56;-1.10;99.90
16974;DHT22;8603;46.944;7.412;2022-11-23T06:48:22;-1.20;99.90
16974;DHT22;8603;46.944;7.412;2022-11-23T06:50:52;-1.00;99.90
16974;DHT22;8603;46.944;7.412;2022-11-23T06:53:37;-1.00;99.90
16974;DHT22;8603;46.944;7.412;2022-11-23T06:56:03;-1.00;99.90
16974;DHT22;8603;46.944;7.412;2022-11-23T06:58:29;-1.10;99.90
16974;DHT22;8603;46.944;7.412;2022-11-23T07:01:15;-1.10;99.90
16974;DHT22;8603;46.944;7.412;2022-11-23T07:03:40;-1.20;99.90
16974;DHT22;8603;46.944;7.412;2022-11-23T07:06:09;-1.20;99.90
16974;DHT22;8603;46.944;7.412;2022-11-23T07:08:40;-1.30;99.90
16974;DHT22;8603;46.944;7.412;2022-11-23T07:11:09;-1.10;99.90
16974;DHT22;8603;46.944;7.412;2022-11-23T07:13:36;-1.00;99.90
16974;DHT22;8603;46.944;7.412;2022-11-23T07:16:07;-0.70;99.90
16974;DHT22;8603;46.944;7.412;2022-11-23T07:18:41;-0.60;99.90
16974;DHT22;8603;46.944;7.412;2022-11-23T07:21:17;-0.50;99.90
16974;DHT22;8603;46.944;7.412;2022-11-23T07:23:45;-0.40;99.90
16974;DHT22;8603;46.944;7.412;2022-11-23T07:26:15;-0.30;99.90
16974;DHT22;8603;46.944;7.412;2022-11-23T07:28:41;-0.10;99.90
16974;DHT22;8603;46.944;7.412;2022-11-23T07:31:11;0.10;99.90
16974;DHT22;8603;46.944;7.412;2022-11-23T07:33:58;0.40;99.90
16974;DHT22;8603;46.944;7.412;2022-11-23T07:36:23;1.60;99.90
16974;DHT22;8603;46.944;7.412;2022-11-23T07:38:49;3.10;99.90
16974;DHT22;8603;46.944;7.412;2022-11-23T07:41:21;4.70;99.90
16974;DHT22;8603;46.944;7.412;2022-11-23T07:43:47;5.90;99.90
16974;DHT22;8603;46.944;7.412;2022-11-23T07:46:28;7.10;99.90
16974;DHT22;8603;46.944;7.412;2022-11-23T07:49:02;8.10;99.90
16974;DHT22;8603;46.944;7.412;2022-11-23T07:51:31;8.50;99.90
16974;DHT22;8603;46.944;7.412;2022-11-23T07:54:07;8.60;99.90
16974;DHT22;8603;46.944;7.412;2022-11-23T07:56:35;9.30;99.90
16974;DHT22;8603;46.944;7.412;2022-11-23T07:59:01;10.20;99.90
16974;DHT22;8603;46.944;7.412;2022-11-23T08:01:27;11.00;99.90
16974;DHT22;8603;46.944;7.412;2022-11-23T08:03:52;11.60;99.90
16974;DHT22;8603;46.944;7.412;2022-11-23T08:06:18;12.20;99.90
16974;DHT22;8603;46.944;7.412;2022-11-23T08:08:44;12.80;99.90
16974;DHT22;8603;46.944;7.412;2022-11-23T08:11:11;13.10;99.90
16974;DHT22;8603;46.944;7.412;2022-11-23T08:13:45;13.20;99.90
16974;DHT22;8603;46.944;7.412;2022-11-23T08:16:24;13.70;99.90
16974;DHT22;8603;46.944;7.412;2022-11-23T08:18:56;14.20;99.90
16974;DHT22;8603;46.944;7.412;2022-11-23T08:21:22;15.20;99.90
16974;DHT22;8603;46.944;7.412;2022-11-23T08:23:47;15.80;99.90
16974;DHT22;8603;46.944;7.412;2022-11-23T08:26:13;16.10;99.90
16974;DHT22;8603;46.944;7.412;2022-11-23T08:28:39;16.40;99.90
16974;DHT22;8603;46.944;7.412;2022-11-23T08:31:06;16.60;99.90
16974;DHT22;8603;46.944;7.412;2022-11-23T08:33:35;16.60;99.90
16974;DHT22;8603;46.944;7.412;2022-11-23T08:36:06;16.70;99.90
16974;DHT22;8603;46.944;7.412;2022-11-23T08:38:37;17.00;99.90
16974;DHT22;8603;46.944;7.412;2022-11-23T08:41:11;17.20;99.90
16974;DHT22;8603;46.944;7.412;2022-11-23T08:43:49;16.90;99.40
16974;DHT22;8603;46.944;7.412;2022-11-23T08:46:19;16.20;99.90
16974;DHT22;8603;46.944;7.412;2022-11-23T08:48:47;15.20;99.90
16974;DHT22;8603;46.944;7.412;2022-11-23T08:51:23;13.60;99.90
16974;DHT22;8603;46.944;7.412;2022-11-23T08:53:50;12.00;99.90
16974;DHT22;8603;46.944;7.412;2022-11-23T08:56:18;10.40;99.90
16974;DHT22;8603;46.944;7.412;2022-11-23T08:58:44;9.10;99.90
16974;DHT22;8603;46.944;7.412;2022-11-23T09:01:31;8.00;99.90
16974;DHT22;8603;46.944;7.412;2022-11-23T09:03:59;7.20;99.90
16974;DHT22;8603;46.944;7.412;2022-11-23T09:06:32;6.40;99.90
16974;DHT22;8603;46.944;7.412;2022-11-23T09:09:57;6.00;99.90
16974;DHT22;8603;46.944;7.412;2022-11-23T09:12:35;5.50;99.90
16974;DHT22;8603;46.944;7.412;2022-11-23T09:15:08;5.30;99.90
16974;DHT22;8603;46.944;7.412;2022-11-23T09:17:37;5.10;99.90
16974;DHT22;8603;46.944;7.412;2022-11-23T09:20:03;4.90;99.90
16974;DHT22;8603;46.944;7.412;2022-11-23T09:22:32;4.70;99.90
16974;DHT22;8603;46.944;7.412;2022-11-23T09:24:57;4.60;99.90
16974;DHT22;8603;46.944;7.412;2022-11-23T09:27:23;4.40;99.90
16974;DHT22;8603;46.944;7.412;2022-11-23T09:29:49;4.30;99.90
16974;DHT22;8603;46.944;7.412;2022-11-23T09:32:14;4.30;99.90
16974;DHT22;8603;46.944;7.412;2022-11-23T09:34:40;4.30;99.90
16974;DHT22;8603;46.944;7.412;2022-11-23T09:37:06;4.30;99.90
16974;DHT22;8603;46.944;7.412;2022-11-23T09:39:35;4.30;99.90
16974;DHT22;8603;46.944;7.412;2022-11-23T09:44:54;4.40;99.90
16974;DHT22;8603;46.944;7.412;2022-11-23T09:47:36;4.40;99.90
16974;DHT22;8603;46.944;7.412;2022-11-23T09:52:31;4.50;99.90
16974;DHT22;8603;46.944;7.412;2022-11-23T09:55:03;4.60;99.90
16974;DHT22;8603;46.944;7.412;2022-11-23T09:57:31;4.60;99.90
16974;DHT22;8603;46.944;7.412;2022-11-23T10:00:06;4.70;99.90
16974;DHT22;8603;46.944;7.412;2022-11-23T10:02:38;4.70;99.90
16974;DHT22;8603;46.944;7.412;2022-11-23T10:05:05;4.70;99.90
16974;DHT22;8603;46.944;7.412;2022-11-23T10:26:31;5.30;99.90
16974;DHT22;8603;46.944;7.412;2022-11-23T10:29:51;5.30;99.90
16974;DHT22;8603;46.944;7.412;2022-11-23T10:32:50;5.30;99.90
16974;DHT22;8603;46.944;7.412;2022-11-23T10:35:33;5.40;99.90
16974;DHT22;8603;46.944;7.412;2022-11-23T10:38:17;5.50;99.90
16974;DHT22;8603;46.944;7.412;2022-11-23T10:43:27;5.60;99.90
16974;DHT22;8603;46.944;7.412;2022-11-23T10:48:50;5.70;99.90
16974;DHT22;8603;46.944;7.412;2022-11-23T10:51:27;5.80;99.90
16974;DHT22;8603;46.944;7.412;2022-11-23T10:57:40;5.90;99.90
16974;DHT22;8603;46.944;7.412;2022-11-23T11:02:44;6.10;99.90
16974;DHT22;8603;46.944;7.412;2022-11-23T11:05:28;6.10;99.90
16974;DHT22;8603;46.944;7.412;2022-11-23T11:08:00;6.10;99.90
16974;DHT22;8603;46.944;7.412;2022-11-23T11:13:43;6.30;99.90
16974;DHT22;8603;46.944;7.412;2022-11-23T11:16:24;6.30;99.90
16974;DHT22;8603;46.944;7.412;2022-11-23T11:19:01;6.40;99.90
16974;DHT22;8603;46.944;7.412;2022-11-23T11:21:44;6.40;99.90
16974;DHT22;8603;46.944;7.412;2022-11-23T11:24:38;6.40;99.90
16974;DHT22;8603;46.944;7.412;2022-11-23T11:27:21;6.50;99.90
16974;DHT22;8603;46.944;7.412;2022-11-23T11:29:57;6.60;99.90
16974;DHT22;8603;46.944;7.412;2022-11-23T11:35:35;6.60;99.90
16974;DHT22;8603;46.944;7.412;2022-11-23T11:38:17;6.60;99.90
16974;DHT22;8603;46.944;7.412;2022-11-23T11:41:16;6.60;99.90
16974;DHT22;8603;46.944;7.412;2022-11-23T11:43:58;6.50;99.90
16974;DHT22;8603;46.944;7.412;2022-11-23T11:46:35;6.40;99.90
16974;DHT22;8603;46.944;7.412;2022-11-23T11:49:41;6.40;99.90
16974;DHT22;8603;46.944;7.412;2022-11-23T11:52:31;6.50;99.90
16974;DHT22;8603;46.944;7.412;2022-11-23T11:59:09;6.50;99.90
16974;DHT22;8603;46.944;7.412;2022-11-23T12:11:11;7.10;99.90
16974;DHT22;8603;46.944;7.412;2022-11-23T12:14:02;7.50;99.90
16974;DHT22;8603;46.944;7.412;2022-11-23T12:17:22;7.90;99.90
16974;DHT22;8603;46.944;7.412;2022-11-23T12:43:53;8.30;99.90
16974;DHT22;8603;46.944;7.412;2022-11-23T13:16:35;9.50;99.90
16974;DHT22;8603;46.944;7.412;2022-11-23T13:22:14;9.80;99.90
16974;DHT22;8603;46.944;7.412;2022-11-23T13:28:42;10.00;99.90
16974;DHT22;8603;46.944;7.412;2022-11-23T13:31:16;10.00;99.90
16974;DHT22;8603;46.944;7.412;2022-11-23T13:33:53;10.00;99.90
16974;DHT22;8603;46.944;7.412;2022-11-23T13:39:00;10.10;99.90
16974;DHT22;8603;46.944;7.412;2022-11-23T13:47:16;10.00;99.90
16974;DHT22;8603;46.944;7.412;2022-11-23T13:49:54;10.00;99.90
16974;DHT22;8603;46.944;7.412;2022-11-23T13:52:55;9.90;99.90
16974;DHT22;8603;46.944;7.412;2022-11-23T14:04:46;9.80;99.90
16974;DHT22;8603;46.944;7.412;2022-11-23T14:07:38;9.70;99.90
16974;DHT22;8603;46.944;7.412;2022-11-23T14:10:18;9.70;99.90
16974;DHT22;8603;46.944;7.412;2022-11-23T14:15:52;9.50;99.90
16974;DHT22;8603;46.944;7.412;2022-11-23T14:18:40;9.40;99.90
16974;DHT22;8603;46.944;7.412;2022-11-23T14:30:33;9.20;99.90
16974;DHT22;8603;46.944;7.412;2022-11-23T14:41:16;8.70;99.90
16974;DHT22;8603;46.944;7.412;2022-11-23T14:43:43;8.60;99.90
16974;DHT22;8603;46.944;7.412;2022-11-23T14:46:18;8.50;99.90
16974;DHT22;8603;46.944;7.412;2022-11-23T14:48:45;8.50;99.90
16974;DHT22;8603;46.944;7.412;2022-11-23T14:51:17;8.30;99.90
16974;DHT22;8603;46.944;7.412;2022-11-23T14:54:06;8.20;99.90
16974;DHT22;8603;46.944;7.412;2022-11-23T14:56:35;8.00;99.90
16974;DHT22;8603;46.944;7.412;2022-11-23T14:59:07;7.90;99.90
16974;DHT22;8603;46.944;7.412;2022-11-23T15:01:33;7.90;99.90
16974;DHT22;8603;46.944;7.412;2022-11-23T15:04:22;7.80;99.90
16974;DHT22;8603;46.944;7.412;2022-11-23T15:06:50;7.70;99.90
16974;DHT22;8603;46.944;7.412;2022-11-23T15:12:25;7.50;99.90
16974;DHT22;8603;46.944;7.412;2022-11-23T15:14:53;7.50;99.90
16974;DHT22;8603;46.944;7.412;2022-11-23T15:17:22;7.40;99.90
16974;DHT22;8603;46.944;7.412;2022-11-23T15:19:58;7.40;99.90
16974;DHT22;8603;46.944;7.412;2022-11-23T15:22:25;7.30;99.90
16974;DHT22;8603;46.944;7.412;2022-11-23T15:24:51;7.20;99.90
16974;DHT22;8603;46.944;7.412;2022-11-23T15:27:26;7.20;99.90
16974;DHT22;8603;46.944;7.412;2022-11-23T15:29:55;7.10;99.90
16974;DHT22;8603;46.944;7.412;2022-11-23T15:32:22;7.10;99.90
16974;DHT22;8603;46.944;7.412;2022-11-23T15:34:48;7.10;99.90
16974;DHT22;8603;46.944;7.412;2022-11-23T15:37:15;7.00;99.90
16974;DHT22;8603;46.944;7.412;2022-11-23T15:39:41;7.00;99.90
16974;DHT22;8603;46.944;7.412;2022-11-23T15:42:10;7.00;99.90
16974;DHT22;8603;46.944;7.412;2022-11-23T15:44:39;7.00;99.90
16974;DHT22;8603;46.944;7.412;2022-11-23T15:47:06;6.90;99.90
16974;DHT22;8603;46.944;7.412;2022-11-23T15:49:39;6.90;99.90
16974;DHT22;8603;46.944;7.412;2022-11-23T15:52:05;6.90;99.90
16974;DHT22;8603;46.944;7.412;2022-11-23T15:54:35;6.90;99.90
16974;DHT22;8603;46.944;7.412;2022-11-23T15:57:05;6.80;99.90
16974;DHT22;8603;46.944;7.412;2022-11-23T15:59:46;6.80;99.90
16974;DHT22;8603;46.944;7.412;2022-11-23T16:02:23;6.80;99.90
16974;DHT22;8603;46.944;7.412;2022-11-23T16:05:16;6.80;99.90
16974;DHT22;8603;46.944;7.412;2022-11-23T16:07:56;6.70;99.90
16974;DHT22;8603;46.944;7.412;2022-11-23T16:12:54;6.50;99.90
16974;DHT22;8603;46.944;7.412;2022-11-23T16:18:03;6.40;99.90
16974;DHT22;8603;46.944;7.412;2022-11-23T16:20:30;6.30;99.90
16974;DHT22;8603;46.944;7.412;2022-11-23T16:22:57;6.30;99.90
16974;DHT22;8603;46.944;7.412;2022-11-23T16:25:30;6.20;99.90
16974;DHT22;8603;46.944;7.412;2022-11-23T16:28:04;6.20;99.90
16974;DHT22;8603;46.944;7.412;2022-11-23T16:30:39;6.20;99.90
16974;DHT22;8603;46.944;7.412;2022-11-23T16:33:08;6.10;99.90
16974;DHT22;8603;46.944;7.412;2022-11-23T16:35:37;6.00;99.90
16974;DHT22;8603;46.944;7.412;2022-11-23T16:38:04;5.90;99.90
16974;DHT22;8603;46.944;7.412;2022-11-23T16:40:36;5.80;99.90
16974;DHT22;8603;46.944;7.412;2022-11-23T16:43:25;5.70;99.90
16974;DHT22;8603;46.944;7.412;2022-11-23T16:46:02;5.70;99.90
16974;DHT22;8603;46.944;7.412;2022-11-23T16:51:53;5.60;99.90
16974;DHT22;8603;46.944;7.412;2022-11-23T16:54:19;5.60;99.90
16974;DHT22;8603;46.944;7.412;2022-11-23T16:56:44;5.60;99.90
16974;DHT22;8603;46.944;7.412;2022-11-23T16:59:16;5.70;99.90
16974;DHT22;8603;46.944;7.412;2022-11-23T17:01:47;5.60;99.90
16974;DHT22;8603;46.944;7.412;2022-11-23T17:04:14;5.70;99.90
16974;DHT22;8603;46.944;7.412;2022-11-23T17:06:41;5.70;99.90
16974;DHT22;8603;46.944;7.412;2022-11-23T17:09:08;5.70;99.90
16974;DHT22;8603;46.944;7.412;2022-11-23T17:11:41;5.70;99.90
16974;DHT22;8603;46.944;7.412;2022-11-23T17:14:12;5.70;99.90
16974;DHT22;8603;46.944;7.412;2022-11-23T17:16:42;5.70;99.90
16974;DHT22;8603;46.944;7.412;2022-11-23T17:19:15;5.70;99.90
16974;DHT22;8603;46.944;7.412;2022-11-23T17:21:42;5.70;99.90
16974;DHT22;8603;46.944;7.412;2022-11-23T17:24:08;5.60;99.90
16974;DHT22;8603;46.944;7.412;2022-11-23T17:26:40;5.50;99.90
16974;DHT22;8603;46.944;7.412;2022-11-23T17:29:11;5.50;99.90
16974;DHT22;8603;46.944;7.412;2022-11-23T17:31:37;5.50;99.90
16974;DHT22;8603;46.944;7.412;2022-11-23T17:34:03;5.50;99.90
16974;DHT22;8603;46.944;7.412;2022-11-23T17:36:29;5.50;99.90
16974;DHT22;8603;46.944;7.412;2022-11-23T17:38:56;5.50;99.90
16974;DHT22;8603;46.944;7.412;2022-11-23T17:41:22;5.50;99.90
16974;DHT22;8603;46.944;7.412;2022-11-23T17:43:48;5.50;99.90
16974;DHT22;8603;46.944;7.412;2022-11-23T17:46:16;5.50;99.90
16974;DHT22;8603;46.944;7.412;2022-11-23T17:48:43;5.50;99.90
16974;DHT22;8603;46.944;7.412;2022-11-23T17:51:10;5.50;99.90
16974;DHT22;8603;46.944;7.412;2022-11-23T17:53:37;5.50;99.90
16974;DHT22;8603;46.944;7.412;2022-11-23T17:56:03;5.60;99.90
16974;DHT22;8603;46.944;7.412;2022-11-23T17:58:28;5.50;99.90
16974;DHT22;8603;46.944;7.412;2022-11-23T18:00:54;5.50;99.90
16974;DHT22;8603;46.944;7.412;2022-11-23T18:03:20;5.50;99.90
16974;DHT22;8603;46.944;7.412;2022-11-23T18:05:45;5.60;99.90
16974;DHT22;8603;46.944;7.412;2022-11-23T18:08:12;5.60;99.90
16974;DHT22;8603;46.944;7.412;2022-11-23T18:10:44;5.60;99.90
16974;DHT22;8603;46.944;7.412;2022-11-23T18:13:10;5.60;99.90
16974;DHT22;8603;46.944;7.412;2022-11-23T18:15:35;5.60;99.90
16974;DHT22;8603;46.944;7.412;2022-11-23T18:18:01;5.60;99.90
16974;DHT22;8603;46.944;7.412;2022-11-23T18:20:26;5.60;99.90
16974;DHT22;8603;46.944;7.412;2022-11-23T18:22:52;5.60;99.90
16974;DHT22;8603;46.944;7.412;2022-11-23T18:25:18;5.70;99.90
16974;DHT22;8603;46.944;7.412;2022-11-23T18:27:43;5.70;99.90
16974;DHT22;8603;46.944;7.412;2022-11-23T18:30:09;5.70;99.90
16974;DHT22;8603;46.944;7.412;2022-11-23T18:32:35;5.70;99.90
16974;DHT22;8603;46.944;7.412;2022-11-23T18:35:00;5.70;99.90
16974;DHT22;8603;46.944;7.412;2022-11-23T18:37:26;5.80;99.90
16974;DHT22;8603;46.944;7.412;2022-11-23T18:39:52;5.80;99.90
16974;DHT22;8603;46.944;7.412;2022-11-23T18:42:17;5.90;99.90
16974;DHT22;8603;46.944;7.412;2022-11-23T18:44:43;6.00;99.90
16974;DHT22;8603;46.944;7.412;2022-11-23T18:47:08;6.00;99.90
16974;DHT22;8603;46.944;7.412;2022-11-23T18:49:34;6.10;99.90
16974;DHT22;8603;46.944;7.412;2022-11-23T18:52:00;6.20;99.90
16974;DHT22;8603;46.944;7.412;2022-11-23T18:54:25;6.30;99.90
16974;DHT22;8603;46.944;7.412;2022-11-23T18:56:51;6.40;99.90
16974;DHT22;8603;46.944;7.412;2022-11-23T18:59:17;6.50;99.90
16974;DHT22;8603;46.944;7.412;2022-11-23T19:01:44;6.50;99.90
16974;DHT22;8603;46.944;7.412;2022-11-23T19:04:11;6.60;99.90
16974;DHT22;8603;46.944;7.412;2022-11-23T19:06:37;6.70;99.90
16974;DHT22;8603;46.944;7.412;2022-11-23T19:09:04;6.70;99.90
16974;DHT22;8603;46.944;7.412;2022-11-23T19:11:29;6.80;99.90